Time;durP1;ratioP1;P1;durP2;ratioP2;P2;SDS_P1;SDS_P2;PMS_P1;PMS_P2;Temp;Humidity;BMP_temperature;BMP_pressure;BME280_temperature;BME280_humidity;BME280_pressure;Samples;Min_cycle;Max_cycle;Signal;HPM_P1;HPM_P2
2022/12/17 13:08:23;;;;;;;270.42;174.80;;;;;;;23.66;29.90;101770.91;5011042;28;20038;-49
2022/12/17 13:10:52;;;;;;;265.92;168.43;;;;;;;23.67;29.87;101773.56;5011706;28;20052;-49
2022/12/17 13:13:27;;;;;;;270.38;170.68;;;;;;;23.69;29.44;101784.06;5012254;28;20084;-53
2022/12/17 13:15:56;;;;;;;269.88;169.93;;;;;;;23.69;29.76;101775.34;5010209;28;20028;-43
2022/12/17 13:18:43;;;;;;;258.00;165.70;;;;;;;23.68;29.54;101761.34;5014134;28;20025;-48
2022/12/17 13:21:19;;;;;;;267.85;170.60;;;;;;;23.68;30.13;101737.78;5013256;28;20115;-41
2022/12/17 13:23:47;;;;;;;251.18;167.35;;;;;;;23.75;29.80;101744.06;5013198;28;20151;-56
2022/12/17 13:26:37;;;;;;;254.07;162.77;;;;;;;23.74;29.68;101750.16;5012061;28;20037;-56
2022/12/17 13:29:23;;;;;;;255.75;161.43;;;;;;;23.76;29.62;101749.34;5009676;28;20049;-53
2022/12/17 13:32:01;;;;;;;256.17;160.30;;;;;;;23.79;29.81;101746.81;5012221;28;20022;-53
2022/12/17 13:34:52;;;;;;;248.75;162.13;;;;;;;23.82;29.70;101740.75;5012083;28;20030;-54
2022/12/17 13:37:28;;;;;;;252.55;163.60;;;;;;;23.83;29.64;101730.31;5013689;28;20029;-52
2022/12/17 13:40:11;;;;;;;260.33;161.15;;;;;;;23.87;29.83;101728.69;5013623;28;20511;-48
2022/12/17 13:42:39;;;;;;;256.63;162.57;;;;;;;23.94;29.58;101732.34;5011617;28;20120;-47
2022/12/17 13:45:13;;;;;;;245.43;162.63;;;;;;;23.96;29.36;101723.69;5013322;28;20458;-45
2022/12/17 13:47:40;;;;;;;256.67;162.30;;;;;;;23.94;29.75;101719.22;5009110;28;20053;-49
2022/12/17 13:50:28;;;;;;;263.65;167.30;;;;;;;23.93;29.72;101717.47;5012864;28;20038;-53
2022/12/17 13:52:56;;;;;;;259.10;168.05;;;;;;;23.95;29.68;101721.00;5011214;28;20070;-45
2022/12/17 13:55:27;;;;;;;256.58;163.68;;;;;;;23.93;29.85;101701.72;5012955;28;20420;-52
2022/12/17 13:57:55;;;;;;;255.50;164.55;;;;;;;23.94;29.63;101709.63;5013237;28;20145;-53
2022/12/17 14:00:24;;;;;;;254.48;163.02;;;;;;;23.96;29.46;101700.09;5012686;28;20022;-41
2022/12/17 14:02:53;;;;;;;228.60;150.23;;;;;;;24.02;29.51;101691.50;5011226;28;20489;-51
2022/12/17 14:05:43;;;;;;;231.27;153.10;;;;;;;24.01;29.69;101683.59;5011634;28;20038;-48
2022/12/17 14:08:16;;;;;;;244.45;156.80;;;;;;;24.02;29.24;101686.25;5013041;28;20034;-49
2022/12/17 14:10:50;;;;;;;245.85;154.30;;;;;;;24.02;29.59;101688.00;5012487;28;20033;-54
2022/12/17 14:13:19;;;;;;;239.10;149.40;;;;;;;24.00;29.36;101687.94;5011388;28;20525;-49
2022/12/17 14:15:51;;;;;;;235.75;155.70;;;;;;;24.00;29.61;101690.56;5012146;28;20388;-45
2022/12/17 14:18:20;;;;;;;242.40;155.32;;;;;;;24.00;29.39;101697.56;5012680;28;20109;-43
2022/12/17 14:20:49;;;;;;;240.65;156.23;;;;;;;24.03;29.23;101690.66;5012365;28;20032;-47
2022/12/17 14:23:28;;;;;;;237.23;151.98;;;;;;;24.01;29.17;101696.72;5010739;28;20030;-45
2022/12/17 14:25:56;;;;;;;234.88;149.43;;;;;;;24.00;29.14;101693.19;5012443;28;20475;-41
2022/12/17 14:28:32;;;;;;;238.98;156.18;;;;;;;24.01;29.40;101699.34;5012595;28;20479;-51
2022/12/17 14:31:19;;;;;;;248.20;156.02;;;;;;;23.97;29.46;101698.38;5011182;28;20026;-42
2022/12/17 14:33:46;;;;;;;242.63;154.15;;;;;;;23.99;29.36;101701.03;5008472;28;20044;-45
2022/12/17 14:36:20;;;;;;;236.70;154.07;;;;;;;23.95;29.42;101700.91;5011607;28;20041;-44
2022/12/17 14:38:59;;;;;;;246.17;157.47;;;;;;;23.97;29.71;101693.13;5008216;28;20104;-42
2022/12/17 14:44:33;;;;;;;248.10;157.70;;;;;;;23.92;29.46;101684.25;5011447;28;20099;-52
2022/12/17 14:47:14;;;;;;;263.80;164.25;;;;;;;23.95;29.25;101693.06;5011858;28;20036;-55
2022/12/17 14:50:01;;;;;;;255.27;164.20;;;;;;;23.95;29.61;101694.81;5010936;28;20025;-52
2022/12/17 14:52:37;;;;;;;245.43;158.73;;;;;;;23.92;29.33;101681.63;5007210;28;20038;-40
2022/12/17 14:55:32;;;;;;;239.70;157.50;;;;;;;23.96;29.56;101684.38;5013012;28;20430;-54
2022/12/17 14:58:21;;;;;;;251.65;161.30;;;;;;;23.97;29.45;101687.91;5013198;28;20113;-49
2022/12/17 15:01:10;;;;;;;248.18;161.50;;;;;;;23.96;29.28;101694.84;5012986;28;20045;-41
2022/12/17 15:03:41;;;;;;;247.73;162.63;;;;;;;23.98;29.19;101715.88;4987989;28;20554;-53
2022/12/17 15:06:11;;;;;;;255.65;164.27;;;;;;;23.94;29.11;101714.88;5013236;28;20510;-54
2022/12/17 15:08:43;;;;;;;238.63;151.82;;;;;;;23.96;29.29;101707.06;5012840;28;20110;-40
2022/12/17 15:11:14;;;;;;;246.15;158.63;;;;;;;23.97;29.13;101721.97;5011716;28;20021;-46
2022/12/17 15:13:42;;;;;;;247.40;161.77;;;;;;;23.96;29.46;101715.81;5012582;28;20083;-49
2022/12/17 15:16:10;;;;;;;252.68;162.65;;;;;;;23.92;29.31;101727.03;5012930;28;20061;-43
2022/12/17 15:18:37;;;;;;;264.92;171.25;;;;;;;23.93;29.45;101725.31;4995155;28;20037;-46
2022/12/17 15:21:05;;;;;;;234.00;153.40;;;;;;;23.94;29.56;101725.34;5013040;28;20463;-46
2022/12/17 15:23:32;;;;;;;252.23;162.48;;;;;;;23.97;28.93;101724.59;5012680;28;20030;-52
2022/12/17 15:25:59;;;;;;;254.25;167.23;;;;;;;23.95;29.45;101715.75;5012716;28;20046;-40
2022/12/17 15:28:28;;;;;;;263.83;167.07;;;;;;;23.94;29.52;101714.00;5012794;28;20430;-51
2022/12/17 15:30:55;;;;;;;258.65;166.65;;;;;;;23.94;29.10;101711.38;5012790;28;20471;-48
2022/12/17 15:33:23;;;;;;;266.40;167.15;;;;;;;23.94;29.30;101709.63;5012747;28;20457;-52
2022/12/17 15:35:51;;;;;;;267.88;173.35;;;;;;;23.92;29.48;101707.81;5012818;28;20026;-47
2022/12/17 15:38:19;;;;;;;271.35;178.40;;;;;;;23.92;29.51;101699.97;5012742;28;20033;-54
2022/12/17 15:40:47;;;;;;;278.58;183.38;;;;;;;23.89;29.38;101694.63;5012621;28;20088;-45
2022/12/17 15:43:19;;;;;;;276.42;180.07;;;;;;;23.88;29.59;101692.88;5013459;28;20030;-52
2022/12/17 15:45:50;;;;;;;292.90;188.45;;;;;;;23.85;29.50;101691.06;5016508;28;20033;-41
2022/12/17 15:48:22;;;;;;;280.85;181.90;;;;;;;23.80;29.41;101680.47;5015316;28;20053;-49
2022/12/17 15:50:49;;;;;;;295.05;189.52;;;;;;;23.87;29.69;101688.47;5015384;28;20029;-53
2022/12/17 15:53:16;;;;;;;280.08;186.52;;;;;;;23.86;29.59;101697.19;5016304;28;20044;-53
2022/12/17 15:55:43;;;;;;;291.95;190.88;;;;;;;23.79;29.78;101680.41;5016408;28;20072;-49
2022/12/17 15:58:12;;;;;;;296.65;193.43;;;;;;;23.88;29.65;101699.00;5016086;28;20447;-43
2022/12/17 16:00:40;;;;;;;290.33;190.25;;;;;;;23.81;29.53;101695.34;5016031;28;20030;-41
2022/12/17 16:03:09;;;;;;;287.08;194.68;;;;;;;23.83;29.82;101700.63;5015830;28;20032;-52
2022/12/17 16:05:36;;;;;;;298.05;201.48;;;;;;;23.87;29.79;101706.81;5015884;28;20108;-46
2022/12/17 16:08:05;;;;;;;309.10;204.77;;;;;;;23.89;29.65;101713.88;5015989;28;20030;-48
2022/12/17 16:10:34;;;;;;;324.15;213.15;;;;;;;23.89;29.62;101724.38;5014561;28;20036;-45
2022/12/17 16:13:02;;;;;;;305.70;204.40;;;;;;;23.91;29.64;101717.41;5015813;28;20026;-52
2022/12/17 16:15:31;;;;;;;309.17;205.52;;;;;;;23.96;30.11;101717.53;5016059;28;20053;-49
2022/12/17 16:17:59;;;;;;;317.50;207.68;;;;;;;24.00;30.14;101714.16;5015749;28;20053;-49
2022/12/17 16:20:26;;;;;;;316.27;214.80;;;;;;;23.97;29.75;101703.63;5014696;28;20048;-51
2022/12/17 16:22:55;;;;;;;309.40;206.27;;;;;;;23.95;29.86;101700.91;5015787;28;20112;-49
2022/12/17 16:25:22;;;;;;;317.95;208.00;;;;;;;24.03;29.76;101714.25;5014916;28;20050;-42
2022/12/17 16:27:51;;;;;;;311.75;203.48;;;;;;;24.07;29.95;101716.09;5015654;28;20112;-54
2022/12/17 16:30:18;;;;;;;305.95;201.95;;;;;;;24.06;29.90;101722.19;5015736;28;20029;-44
2022/12/17 16:32:47;;;;;;;317.08;201.93;;;;;;;24.08;29.91;101720.50;5047059;28;20030;-45
2022/12/17 16:35:15;;;;;;;304.10;195.57;;;;;;;24.16;29.55;101722.44;5015408;28;20080;-42
2022/12/17 16:37:43;;;;;;;281.05;185.07;;;;;;;24.15;29.42;101720.66;5014052;28;20113;-53
2022/12/17 16:40:11;;;;;;;290.38;189.20;;;;;;;24.14;29.91;101719.75;5047252;28;20422;-49
2022/12/17 16:42:38;;;;;;;283.77;186.18;;;;;;;24.15;29.97;101716.28;5014806;28;20053;-49
2022/12/17 16:45:07;;;;;;;273.88;179.65;;;;;;;24.12;29.93;101724.97;5015123;28;20038;-50
2022/12/17 16:47:35;;;;;;;283.63;180.48;;;;;;;24.16;29.51;101732.91;5015056;28;20033;-41
2022/12/17 16:50:03;;;;;;;279.15;184.63;;;;;;;24.15;29.63;101729.38;5014991;28;20112;-54
2022/12/17 16:52:31;;;;;;;293.45;190.95;;;;;;;24.15;29.63;101741.63;5013584;28;20109;-51
2022/12/17 16:54:59;;;;;;;268.77;177.60;;;;;;;24.16;29.33;101739.03;5013955;28;20033;-43
2022/12/17 16:57:28;;;;;;;282.15;176.73;;;;;;;24.15;29.66;101742.50;5014740;28;20037;-44
2022/12/17 16:59:56;;;;;;;275.05;178.20;;;;;;;24.12;29.35;101727.59;5015075;28;20033;-51
2022/12/17 17:02:24;;;;;;;277.30;179.60;;;;;;;24.14;29.61;101727.63;5015127;28;20113;-53
2022/12/17 17:04:51;;;;;;;273.40;179.50;;;;;;;24.12;29.41;101724.97;5013428;28;20121;-41
2022/12/17 17:07:20;;;;;;;268.38;175.52;;;;;;;24.15;29.81;101734.63;5015048;28;20030;-41
2022/12/17 17:09:49;;;;;;;269.08;173.73;;;;;;;24.06;29.67;101722.19;5014996;28;20428;-46
2022/12/17 17:12:16;;;;;;;273.58;172.60;;;;;;;24.19;29.35;101727.72;5014680;28;20435;-51
2022/12/17 17:14:45;;;;;;;275.10;175.07;;;;;;;24.17;29.73;101724.16;5013114;28;20022;-44
2022/12/17 17:17:13;;;;;;;261.77;169.30;;;;;;;24.21;29.53;101729.53;5014824;28;20056;-53
2022/12/17 17:19:40;;;;;;;264.45;170.57;;;;;;;24.17;29.58;101722.44;5014633;28;20064;-49
2022/12/17 17:22:08;;;;;;;267.30;171.07;;;;;;;24.27;29.21;101731.44;5014768;28;20026;-52
2022/12/17 17:24:35;;;;;;;252.93;163.07;;;;;;;24.30;29.59;101726.25;5014303;28;20072;-53
2022/12/17 17:27:04;;;;;;;265.45;170.02;;;;;;;24.31;29.35;101720.16;5014379;28;20030;-52
2022/12/17 17:29:31;;;;;;;259.20;166.55;;;;;;;24.31;29.62;101727.13;5014578;28;20034;-53
2022/12/17 17:31:58;;;;;;;259.33;167.68;;;;;;;24.34;29.68;101728.09;5012906;28;20022;-50
2022/12/17 17:34:26;;;;;;;272.52;173.40;;;;;;;24.38;29.49;101727.31;5014178;28;20062;-41
2022/12/17 17:36:53;;;;;;;325.00;189.00;;;;;;;24.41;29.23;101732.63;5014772;28;20022;-50
2022/12/17 17:39:22;;;;;;;533.13;279.02;;;;;;;24.43;29.22;101728.31;5014254;28;20029;-52
2022/12/17 17:41:50;;;;;;;662.78;340.38;;;;;;;24.42;28.97;101733.50;5014448;28;20101;-51
2022/12/17 17:44:18;;;;;;;689.65;361.83;;;;;;;24.45;29.18;101737.94;5014238;28;20025;-56
2022/12/17 17:46:48;;;;;;;749.13;381.65;;;;;;;24.48;29.22;101740.66;5014068;28;20109;-45
2022/12/17 17:49:15;;;;;;;772.85;391.77;;;;;;;24.51;28.80;101738.06;5014128;28;20498;-54
2022/12/17 17:51:44;;;;;;;740.47;368.52;;;;;;;24.47;28.99;101723.16;4996119;28;20038;-53
2022/12/17 17:54:11;;;;;;;759.47;388.60;;;;;;;24.51;28.90;101720.63;5013919;28;20022;-55
2022/12/17 17:56:40;;;;;;;749.17;389.88;;;;;;;24.50;29.13;101716.22;5013627;28;20033;-50
2022/12/17 17:59:11;;;;;;;748.97;382.33;;;;;;;24.49;29.25;101708.34;5013490;28;20041;-56
2022/12/17 18:01:44;;;;;;;742.28;385.63;;;;;;;24.53;29.35;101707.53;5013992;28;20032;-55
2022/12/17 18:04:15;;;;;;;752.38;395.05;;;;;;;24.44;29.26;101684.59;5013715;28;20029;-55
2022/12/17 18:06:43;;;;;;;717.95;386.40;;;;;;;24.55;28.92;101695.34;5013498;28;20030;-52
2022/12/17 18:09:12;;;;;;;699.33;377.10;;;;;;;24.53;29.00;101702.28;5013606;28;20173;-55
2022/12/17 18:11:41;;;;;;;700.05;371.55;;;;;;;24.54;29.31;101704.06;5013736;28;20108;-55
2022/12/17 18:14:11;;;;;;;667.70;362.05;;;;;;;24.57;29.27;101705.00;4996049;28;20029;-49
2022/12/17 18:16:45;;;;;;;665.90;352.73;;;;;;;24.58;29.04;101701.53;5012602;28;20030;-41
2022/12/17 18:19:16;;;;;;;636.30;342.27;;;;;;;24.56;29.03;101702.34;5013700;28;20036;-53
2022/12/17 18:21:45;;;;;;;645.03;344.15;;;;;;;24.56;29.02;101705.88;5013548;28;20030;-60
2022/12/17 18:24:17;;;;;;;589.22;327.15;;;;;;;24.58;29.50;101709.41;5013380;28;20053;-54
2022/12/17 18:26:46;;;;;;;585.30;319.13;;;;;;;24.60;29.45;101722.56;5013541;28;20018;-53
2022/12/17 18:29:20;;;;;;;565.20;313.35;;;;;;;24.63;29.44;101724.34;5013490;28;20101;-56
2022/12/17 18:31:48;;;;;;;537.10;298.10;;;;;;;24.62;29.44;101723.50;5013044;28;20034;-53
2022/12/17 18:34:18;;;;;;;537.50;296.05;;;;;;;24.67;29.15;101731.44;5011122;28;20050;-46
2022/12/17 18:36:46;;;;;;;539.72;299.75;;;;;;;24.64;29.22;101745.41;5012587;28;20104;-55
2022/12/17 18:39:20;;;;;;;512.10;286.95;;;;;;;24.63;29.29;101733.13;5012303;28;20030;-52
2022/12/17 18:44:41;;;;;;;471.85;266.23;;;;;;;24.63;29.50;101751.50;5003574;28;20036;-55
2022/12/17 18:47:09;;;;;;;473.38;265.58;;;;;;;24.63;29.33;101747.97;5012241;28;20057;-55
2022/12/17 18:49:38;;;;;;;475.83;268.08;;;;;;;24.65;29.38;101767.25;5011951;28;20030;-46
2022/12/17 18:52:05;;;;;;;443.25;253.20;;;;;;;24.62;29.71;101765.47;5011756;28;20030;-56
2022/12/17 18:54:33;;;;;;;443.67;251.48;;;;;;;24.64;29.42;101760.22;4994156;28;20050;-55
2022/12/17 18:57:00;;;;;;;439.83;250.43;;;;;;;24.63;29.85;101764.63;5011917;28;20101;-54
2022/12/17 18:59:29;;;;;;;435.02;251.13;;;;;;;24.65;29.53;101768.16;5011875;28;20029;-48
2022/12/17 19:01:57;;;;;;;416.42;244.52;;;;;;;24.67;29.42;101770.81;5011564;28;20026;-51
2022/12/17 19:04:26;;;;;;;423.80;244.40;;;;;;;24.67;29.58;101766.44;5011617;28;20025;-43
2022/12/17 19:06:54;;;;;;;402.92;237.30;;;;;;;24.68;29.61;101752.47;5010584;28;20045;-53
2022/12/17 19:09:24;;;;;;;403.77;236.40;;;;;;;24.70;29.60;101753.41;5011677;28;20430;-54
2022/12/17 19:11:52;;;;;;;414.10;246.48;;;;;;;24.68;29.52;101743.72;4994501;28;20026;-44
2022/12/17 19:14:21;;;;;;;410.70;237.70;;;;;;;24.66;29.69;101727.94;5011598;28;20084;-49
2022/12/17 19:16:49;;;;;;;386.38;229.32;;;;;;;24.62;29.94;101725.22;5008559;28;20044;-49
2022/12/17 19:19:17;;;;;;;391.10;229.40;;;;;;;24.63;29.95;101725.25;5010582;28;20034;-41
2022/12/17 19:21:45;;;;;;;381.65;233.05;;;;;;;24.64;29.75;101716.53;5015642;28;20030;-50
2022/12/17 19:24:14;;;;;;;383.10;227.45;;;;;;;24.66;29.56;101722.69;5015066;28;20459;-53
2022/12/17 19:26:42;;;;;;;363.13;223.95;;;;;;;24.73;29.81;101721.13;5016201;28;20047;-46
2022/12/17 19:29:12;;;;;;;365.08;219.82;;;;;;;24.73;29.61;101724.63;5015826;28;20054;-53
2022/12/17 19:31:40;;;;;;;368.98;220.82;;;;;;;24.70;29.77;101729.81;5015535;28;20030;-52
2022/12/17 19:34:10;;;;;;;370.45;230.10;;;;;;;24.68;29.85;101720.97;5015194;28;20502;-41
2022/12/17 19:36:38;;;;;;;367.73;225.85;;;;;;;24.71;29.51;101723.72;5015742;28;20038;-52
2022/12/17 19:39:10;;;;;;;352.67;222.15;;;;;;;24.70;29.73;101718.44;5015731;28;20483;-49
2022/12/17 19:41:37;;;;;;;358.60;224.13;;;;;;;24.74;29.52;101733.38;5015907;28;20077;-44
2022/12/17 19:44:06;;;;;;;353.48;225.23;;;;;;;24.73;29.57;101735.13;5015256;28;20102;-53
2022/12/17 19:46:35;;;;;;;352.75;221.82;;;;;;;24.73;29.80;101729.88;5015771;28;20116;-53
2022/12/17 19:49:03;;;;;;;353.40;220.27;;;;;;;24.78;29.33;101736.97;5015069;28;20475;-45
2022/12/17 19:51:32;;;;;;;371.58;231.43;;;;;;;24.74;29.87;101728.13;5015001;28;20030;-47
2022/12/17 19:54:01;;;;;;;346.67;222.98;;;;;;;24.71;29.63;101709.72;5014815;28;20025;-53
2022/12/17 19:56:31;;;;;;;352.58;221.85;;;;;;;24.73;29.52;101708.88;5015199;28;20037;-55
2022/12/17 19:59:02;;;;;;;354.30;224.95;;;;;;;24.68;29.57;101707.88;5015067;28;20119;-48
2022/12/17 20:01:32;;;;;;;327.67;211.65;;;;;;;24.65;29.79;101705.19;5015164;28;20018;-53
2022/12/17 20:04:01;;;;;;;333.27;216.88;;;;;;;24.66;29.68;101699.06;5014253;28;20497;-53
2022/12/17 20:06:31;;;;;;;343.10;216.18;;;;;;;24.65;29.53;101692.06;5015015;28;20109;-47
2022/12/17 20:09:01;;;;;;;329.98;211.30;;;;;;;24.66;29.64;101693.81;5015107;28;20037;-53
2022/12/17 20:11:32;;;;;;;331.02;211.65;;;;;;;24.64;29.54;101686.78;5013983;28;20041;-54
2022/12/17 20:14:25;;;;;;;338.73;211.30;;;;;;;24.61;29.33;101685.00;5016195;28;20057;-41
2022/12/17 20:16:56;;;;;;;342.80;214.45;;;;;;;24.57;29.34;101686.63;5016166;28;20046;-52
2022/12/17 20:19:29;;;;;;;328.00;207.13;;;;;;;24.62;29.37;101683.22;5014629;28;20472;-48
2022/12/17 20:21:59;;;;;;;327.98;211.40;;;;;;;24.58;29.40;101687.53;5016450;28;20112;-43
2022/12/17 20:24:27;;;;;;;330.63;211.18;;;;;;;24.58;29.40;101687.53;5011082;28;20049;-46
2022/12/17 20:26:55;;;;;;;317.17;205.80;;;;;;;24.62;29.64;101688.47;5011427;28;20033;-41
2022/12/17 20:29:24;;;;;;;299.58;202.27;;;;;;;24.47;29.28;101668.06;5013724;28;20486;-42
2022/12/17 20:31:52;;;;;;;295.02;194.80;;;;;;;24.59;29.30;101694.56;5012915;28;20399;-41
2022/12/17 20:34:24;;;;;;;300.77;190.52;;;;;;;24.54;29.70;101691.84;5012441;28;20379;-45
2022/12/17 20:36:52;;;;;;;290.42;190.00;;;;;;;24.56;29.59;101700.63;5013828;28;20129;-48
2022/12/17 20:39:21;;;;;;;295.58;191.65;;;;;;;24.61;29.59;101702.44;5013209;28;20030;-48
2022/12/17 20:41:50;;;;;;;304.58;195.80;;;;;;;24.56;29.45;101691.88;5013426;28;20026;-44
2022/12/17 20:44:17;;;;;;;299.58;198.63;;;;;;;24.58;29.56;101698.03;5012321;28;20034;-42
2022/12/17 20:46:44;;;;;;;321.67;204.63;;;;;;;24.58;29.49;101712.00;5013105;28;20026;-50
2022/12/17 20:49:13;;;;;;;304.17;199.98;;;;;;;24.57;29.61;101702.38;5013371;28;20068;-52
2022/12/17 20:51:41;;;;;;;299.15;196.60;;;;;;;24.58;29.25;101698.91;5013824;28;20117;-42
2022/12/17 20:54:09;;;;;;;310.48;200.75;;;;;;;24.53;29.75;101697.03;5012433;28;20072;-55
2022/12/17 20:56:39;;;;;;;297.25;193.77;;;;;;;24.52;29.66;101695.25;5010882;28;20116;-42
2022/12/17 20:59:08;;;;;;;304.40;194.23;;;;;;;24.53;29.29;101695.31;5010264;28;20045;-41
2022/12/17 21:01:36;;;;;;;298.60;191.98;;;;;;;24.53;29.52;101691.78;5011701;28;20026;-42
2022/12/17 21:04:06;;;;;;;294.42;191.05;;;;;;;24.52;29.39;101697.88;5012703;28;20030;-42
2022/12/17 21:06:40;;;;;;;284.35;186.52;;;;;;;24.52;29.16;101700.50;5013036;28;20030;-44
2022/12/17 21:09:07;;;;;;;281.47;182.70;;;;;;;24.63;29.29;101698.13;5009625;28;20467;-50
2022/12/17 21:11:36;;;;;;;288.60;181.73;;;;;;;24.55;28.87;101697.97;5013852;28;20545;-52
2022/12/17 21:14:05;;;;;;;269.45;178.82;;;;;;;24.50;29.15;101697.84;5013837;28;20025;-53
2022/12/17 21:16:34;;;;;;;281.80;184.10;;;;;;;24.51;29.08;101707.50;5012838;28;20057;-47
2022/12/17 21:19:04;;;;;;;258.30;172.52;;;;;;;24.51;29.10;101696.09;5013436;28;20175;-46
